sensor_id;sensor_type;location;lat;lon;timestamp;pressure;altitude;pressure_sealevel;temperature;humidity
60852;BME280;48553;50.766;2.900;2023-02-26T00:02:12;101208.50;;;3.90;74.67
60852;BME280;48553;50.766;2.900;2023-02-26T00:05:14;101205.81;;;3.85;74.68
60852;BME280;48553;50.766;2.900;2023-02-26T00:08:15;101212.31;;;3.84;74.79
60852;BME280;48553;50.766;2.900;2023-02-26T00:11:16;101209.09;;;3.82;74.87
60852;BME280;48553;50.766;2.900;2023-02-26T00:14:17;101206.38;;;3.82;75.03
60852;BME280;48553;50.766;2.900;2023-02-26T00:17:38;101215.59;;;3.81;74.89
60852;BME280;48553;50.766;2.900;2023-02-26T00:20:41;101218.88;;;3.78;74.94
60852;BME280;48553;50.766;2.900;2023-02-26T00:23:45;101214.81;;;3.75;74.92
60852;BME280;48553;50.766;2.900;2023-02-26T00:26:45;101202.34;;;3.74;74.90
60852;BME280;48553;50.766;2.900;2023-02-26T00:29:46;101208.84;;;3.73;74.85
60852;BME280;48553;50.766;2.900;2023-02-26T00:32:47;101217.00;;;3.73;74.91
60852;BME280;48553;50.766;2.900;2023-02-26T00:35:48;101219.16;;;3.71;74.76
60852;BME280;48553;50.766;2.900;2023-02-26T00:39:14;101221.59;;;3.67;74.94
60852;BME280;48553;50.766;2.900;2023-02-26T00:42:21;101234.91;;;3.64;75.03
60852;BME280;48553;50.766;2.900;2023-02-26T00:45:21;101233.28;;;3.63;74.98
60852;BME280;48553;50.766;2.900;2023-02-26T00:48:39;101233.84;;;3.60;74.96
60852;BME280;48553;50.766;2.900;2023-02-26T00:51:55;101246.28;;;3.61;74.90
60852;BME280;48553;50.766;2.900;2023-02-26T00:54:57;101235.75;;;3.59;74.75
60852;BME280;48553;50.766;2.900;2023-02-26T00:57:58;101247.66;;;3.58;75.01
60852;BME280;48553;50.766;2.900;2023-02-26T01:00:59;101241.16;;;3.54;74.99
60852;BME280;48553;50.766;2.900;2023-02-26T01:04:00;101243.88;;;3.54;74.81
60852;BME280;48553;50.766;2.900;2023-02-26T01:07:01;101246.88;;;3.47;74.81
60852;BME280;48553;50.766;2.900;2023-02-26T01:10:01;101240.91;;;3.50;74.85
60852;BME280;48553;50.766;2.900;2023-02-26T01:13:02;101243.09;;;3.48;74.86
60852;BME280;48553;50.766;2.900;2023-02-26T01:16:08;101251.78;;;3.45;74.97
60852;BME280;48553;50.766;2.900;2023-02-26T01:19:36;101252.84;;;3.44;75.22
60852;BME280;48553;50.766;2.900;2023-02-26T01:22:45;101249.91;;;3.41;75.17
60852;BME280;48553;50.766;2.900;2023-02-26T01:25:51;101241.22;;;3.39;75.34
60852;BME280;48553;50.766;2.900;2023-02-26T01:28:55;101240.41;;;3.38;75.04
60852;BME280;48553;50.766;2.900;2023-02-26T01:35:31;101243.66;;;3.35;75.04
60852;BME280;48553;50.766;2.900;2023-02-26T01:41:55;101230.69;;;3.32;74.93
60852;BME280;48553;50.766;2.900;2023-02-26T01:45:11;101231.75;;;3.31;74.70
60852;BME280;48553;50.766;2.900;2023-02-26T01:48:33;101231.22;;;3.29;75.22
60852;BME280;48553;50.766;2.900;2023-02-26T01:51:48;101231.22;;;3.29;75.15
60852;BME280;48553;50.766;2.900;2023-02-26T01:54:49;101234.22;;;3.27;74.87
60852;BME280;48553;50.766;2.900;2023-02-26T01:57:51;101237.44;;;3.24;75.06
60852;BME280;48553;50.766;2.900;2023-02-26T02:00:54;101226.63;;;3.24;74.87
60852;BME280;48553;50.766;2.900;2023-02-26T02:03:54;101241.00;;;3.25;74.75
60852;BME280;48553;50.766;2.900;2023-02-26T02:06:55;101232.84;;;3.20;75.12
60852;BME280;48553;50.766;2.900;2023-02-26T02:09:55;101240.72;;;3.21;75.19
60852;BME280;48553;50.766;2.900;2023-02-26T02:16:15;101242.34;;;3.17;74.82
60852;BME280;48553;50.766;2.900;2023-02-26T02:32:38;101249.94;;;3.15;75.55
60852;BME280;48553;50.766;2.900;2023-02-26T02:35:53;101253.44;;;3.16;75.58
60852;BME280;48553;50.766;2.900;2023-02-26T02:39:03;101251.84;;;3.14;75.98
60852;BME280;48553;50.766;2.900;2023-02-26T02:42:19;101251.28;;;3.12;75.98
60852;BME280;48553;50.766;2.900;2023-02-26T02:45:33;101255.34;;;3.15;76.16
60852;BME280;48553;50.766;2.900;2023-02-26T02:48:39;101263.78;;;3.13;75.98
60852;BME280;48553;50.766;2.900;2023-02-26T02:51:47;101261.06;;;3.13;76.28
60852;BME280;48553;50.766;2.900;2023-02-26T02:54:50;101264.56;;;3.14;76.42
60852;BME280;48553;50.766;2.900;2023-02-26T02:57:59;101266.19;;;3.15;76.41
60852;BME280;48553;50.766;2.900;2023-02-26T03:01:05;101265.38;;;3.14;76.52
60852;BME280;48553;50.766;2.900;2023-02-26T03:04:09;101269.19;;;3.13;76.64
60852;BME280;48553;50.766;2.900;2023-02-26T03:07:10;101260.75;;;3.15;77.04
60852;BME280;48553;50.766;2.900;2023-02-26T03:10:11;101271.88;;;3.13;76.93
60852;BME280;48553;50.766;2.900;2023-02-26T03:13:20;101264.84;;;3.12;76.79
60852;BME280;48553;50.766;2.900;2023-02-26T03:19:52;101269.19;;;3.13;77.16
60852;BME280;48553;50.766;2.900;2023-02-26T03:23:13;101277.56;;;3.12;77.07
60852;BME280;48553;50.766;2.900;2023-02-26T03:26:28;101279.19;;;3.13;77.03
60852;BME280;48553;50.766;2.900;2023-02-26T03:29:39;101275.94;;;3.11;77.39
60852;BME280;48553;50.766;2.900;2023-02-26T03:39:03;101292.72;;;3.13;77.42
60852;BME280;48553;50.766;2.900;2023-02-26T03:42:10;101296.53;;;3.12;77.14
60852;BME280;48553;50.766;2.900;2023-02-26T03:45:22;101304.66;;;3.12;77.47
60852;BME280;48553;50.766;2.900;2023-02-26T03:48:26;101298.94;;;3.08;77.46
60852;BME280;48553;50.766;2.900;2023-02-26T03:51:29;101310.63;;;3.09;77.68
60852;BME280;48553;50.766;2.900;2023-02-26T03:54:33;101311.69;;;3.13;77.54
60852;BME280;48553;50.766;2.900;2023-02-26T03:57:35;101311.69;;;3.08;77.75
60852;BME280;48553;50.766;2.900;2023-02-26T04:00:37;101306.81;;;3.05;78.14
60852;BME280;48553;50.766;2.900;2023-02-26T04:03:52;101303.56;;;3.08;77.89
60852;BME280;48553;50.766;2.900;2023-02-26T04:06:56;101313.31;;;3.09;78.06
60852;BME280;48553;50.766;2.900;2023-02-26T04:09:57;101316.03;;;3.09;78.39
60852;BME280;48553;50.766;2.900;2023-02-26T04:12:59;101317.38;;;3.11;78.34
60852;BME280;48553;50.766;2.900;2023-02-26T04:16:01;101320.34;;;3.10;78.59
60852;BME280;48553;50.766;2.900;2023-02-26T04:19:01;101326.31;;;3.12;78.44
60852;BME280;48553;50.766;2.900;2023-02-26T04:22:02;101326.31;;;3.12;78.67
60852;BME280;48553;50.766;2.900;2023-02-26T04:25:03;101335.78;;;3.09;78.61
60852;BME280;48553;50.766;2.900;2023-02-26T04:28:03;101337.69;;;3.09;78.66
60852;BME280;48553;50.766;2.900;2023-02-26T04:31:04;101347.16;;;3.06;78.67
60852;BME280;48553;50.766;2.900;2023-02-26T04:34:05;101355.00;;;3.08;79.02
60852;BME280;48553;50.766;2.900;2023-02-26T04:37:05;101353.91;;;3.04;78.98
60852;BME280;48553;50.766;2.900;2023-02-26T04:40:06;101366.41;;;3.05;78.82
60852;BME280;48553;50.766;2.900;2023-02-26T04:43:07;101373.97;;;3.03;78.49
60852;BME280;48553;50.766;2.900;2023-02-26T04:46:08;101379.38;;;3.03;78.64
60852;BME280;48553;50.766;2.900;2023-02-26T04:49:08;101376.94;;;3.01;78.76
60852;BME280;48553;50.766;2.900;2023-02-26T04:52:09;101394.28;;;3.00;78.82
60852;BME280;48553;50.766;2.900;2023-02-26T04:55:09;101395.09;;;3.01;79.12
60852;BME280;48553;50.766;2.900;2023-02-26T04:58:10;101398.34;;;3.03;78.69
60852;BME280;48553;50.766;2.900;2023-02-26T05:01:10;101408.06;;;2.99;78.79
60852;BME280;48553;50.766;2.900;2023-02-26T05:04:12;101404.28;;;3.00;78.44
60852;BME280;48553;50.766;2.900;2023-02-26T05:07:13;101412.41;;;3.00;78.44
60852;BME280;48553;50.766;2.900;2023-02-26T05:10:13;101417.81;;;3.00;78.23
60852;BME280;48553;50.766;2.900;2023-02-26T05:13:14;101422.16;;;3.01;78.39
60852;BME280;48553;50.766;2.900;2023-02-26T05:16:14;101416.47;;;2.97;77.98
60852;BME280;48553;50.766;2.900;2023-02-26T05:19:15;101422.72;;;2.98;77.96
60852;BME280;48553;50.766;2.900;2023-02-26T05:22:15;101423.50;;;2.98;77.62
60852;BME280;48553;50.766;2.900;2023-02-26T05:25:16;101423.78;;;2.97;77.54
60852;BME280;48553;50.766;2.900;2023-02-26T05:28:17;101422.41;;;2.94;77.73
60852;BME280;48553;50.766;2.900;2023-02-26T05:31:17;101432.44;;;2.93;77.55
60852;BME280;48553;50.766;2.900;2023-02-26T05:34:18;101441.63;;;2.92;77.25
60852;BME280;48553;50.766;2.900;2023-02-26T05:37:18;101443.78;;;2.90;77.04
60852;BME280;48553;50.766;2.900;2023-02-26T05:40:19;101446.78;;;2.89;76.63
60852;BME280;48553;50.766;2.900;2023-02-26T05:43:19;101444.31;;;2.87;76.06
60852;BME280;48553;50.766;2.900;2023-02-26T05:46:19;101447.59;;;2.84;76.31
60852;BME280;48553;50.766;2.900;2023-02-26T05:49:20;101454.06;;;2.83;75.83
60852;BME280;48553;50.766;2.900;2023-02-26T05:52:21;101459.22;;;2.80;75.70
60852;BME280;48553;50.766;2.900;2023-02-26T05:55:21;101454.59;;;2.80;75.35
60852;BME280;48553;50.766;2.900;2023-02-26T05:58:22;101459.22;;;2.80;75.54
60852;BME280;48553;50.766;2.900;2023-02-26T06:01:22;101467.84;;;2.77;75.60
60852;BME280;48553;50.766;2.900;2023-02-26T06:04:23;101468.94;;;2.76;75.38
60852;BME280;48553;50.766;2.900;2023-02-26T06:07:23;101474.59;;;2.74;75.51
60852;BME280;48553;50.766;2.900;2023-02-26T06:10:24;101469.47;;;2.72;75.00
60852;BME280;48553;50.766;2.900;2023-02-26T06:13:24;101480.28;;;2.72;75.18
60852;BME280;48553;50.766;2.900;2023-02-26T06:16:25;101477.84;;;2.71;75.27
60852;BME280;48553;50.766;2.900;2023-02-26T06:19:25;101483.50;;;2.69;75.07
60852;BME280;48553;50.766;2.900;2023-02-26T06:22:25;101479.69;;;2.65;75.21
60852;BME280;48553;50.766;2.900;2023-02-26T06:25:26;101485.94;;;2.66;75.23
60852;BME280;48553;50.766;2.900;2023-02-26T06:28:26;101499.47;;;2.66;75.08
60852;BME280;48553;50.766;2.900;2023-02-26T06:31:27;101497.59;;;2.66;75.10
60852;BME280;48553;50.766;2.900;2023-02-26T06:34:27;101494.56;;;2.63;74.90
60852;BME280;48553;50.766;2.900;2023-02-26T06:37:28;101499.75;;;2.64;75.07
60852;BME280;48553;50.766;2.900;2023-02-26T06:40:28;101506.50;;;2.62;75.29
60852;BME280;48553;50.766;2.900;2023-02-26T06:43:29;101519.22;;;2.61;75.24
60852;BME280;48553;50.766;2.900;2023-02-26T06:46:30;101518.38;;;2.61;74.86
60852;BME280;48553;50.766;2.900;2023-02-26T06:49:30;101530.28;;;2.60;75.14
60852;BME280;48553;50.766;2.900;2023-02-26T06:52:31;101525.94;;;2.59;74.80
60852;BME280;48553;50.766;2.900;2023-02-26T06:55:32;101538.66;;;2.58;74.78
60852;BME280;48553;50.766;2.900;2023-02-26T06:58:33;101538.41;;;2.60;74.90
60852;BME280;48553;50.766;2.900;2023-02-26T07:01:33;101550.03;;;2.60;74.60
60852;BME280;48553;50.766;2.900;2023-02-26T07:04:34;101554.38;;;2.61;74.48
60852;BME280;48553;50.766;2.900;2023-02-26T07:07:34;101556.31;;;2.66;74.67
60852;BME280;48553;50.766;2.900;2023-02-26T07:10:36;101561.44;;;2.67;74.67
60852;BME280;48553;50.766;2.900;2023-02-26T07:13:36;101570.91;;;2.70;74.23
60852;BME280;48553;50.766;2.900;2023-02-26T07:16:37;101578.00;;;2.76;74.34
60852;BME280;48553;50.766;2.900;2023-02-26T07:19:37;101584.53;;;2.80;74.35
60852;BME280;48553;50.766;2.900;2023-02-26T07:22:38;101589.97;;;2.85;74.12
60852;BME280;48553;50.766;2.900;2023-02-26T07:25:38;101584.56;;;2.90;73.85
60852;BME280;48553;50.766;2.900;2023-02-26T07:28:39;101583.50;;;2.97;73.75
60852;BME280;48553;50.766;2.900;2023-02-26T07:31:39;101586.25;;;3.02;73.53
60852;BME280;48553;50.766;2.900;2023-02-26T07:34:40;101593.63;;;3.11;73.45
60852;BME280;48553;50.766;2.900;2023-02-26T07:37:40;101590.38;;;3.20;73.12
60852;BME280;48553;50.766;2.900;2023-02-26T07:40:40;101605.88;;;3.29;73.12
60852;BME280;48553;50.766;2.900;2023-02-26T07:43:41;101614.28;;;3.38;72.74
60852;BME280;48553;50.766;2.900;2023-02-26T07:46:41;101617.28;;;3.47;72.53
60852;BME280;48553;50.766;2.900;2023-02-26T07:49:42;101621.66;;;3.53;71.89
60852;BME280;48553;50.766;2.900;2023-02-26T07:52:43;101628.19;;;3.57;71.73
60852;BME280;48553;50.766;2.900;2023-02-26T07:55:43;101628.75;;;3.69;71.63
60852;BME280;48553;50.766;2.900;2023-02-26T07:58:43;101634.44;;;3.73;71.56
60852;BME280;48553;50.766;2.900;2023-02-26T08:01:44;101638.53;;;3.81;71.79
60852;BME280;48553;50.766;2.900;2023-02-26T08:04:44;101647.75;;;3.90;71.76
60852;BME280;48553;50.766;2.900;2023-02-26T08:07:45;101634.19;;;3.95;71.83
60852;BME280;48553;50.766;2.900;2023-02-26T08:10:45;101649.94;;;4.03;71.50
60852;BME280;48553;50.766;2.900;2023-02-26T08:13:46;101652.16;;;4.11;71.52
60852;BME280;48553;50.766;2.900;2023-02-26T08:16:46;101658.94;;;4.19;71.15
60852;BME280;48553;50.766;2.900;2023-02-26T08:19:46;101640.75;;;4.25;70.77
60852;BME280;48553;50.766;2.900;2023-02-26T08:22:47;101658.13;;;4.34;70.79
60852;BME280;48553;50.766;2.900;2023-02-26T08:25:49;101650.78;;;4.39;70.43
60852;BME280;48553;50.766;2.900;2023-02-26T08:28:50;101657.56;;;4.47;69.92
60852;BME280;48553;50.766;2.900;2023-02-26T08:31:51;101657.03;;;4.55;69.25
60852;BME280;48553;50.766;2.900;2023-02-26T08:34:51;101656.75;;;4.62;69.42
60852;BME280;48553;50.766;2.900;2023-02-26T08:37:52;101655.09;;;4.71;68.85
60852;BME280;48553;50.766;2.900;2023-02-26T08:40:53;101659.69;;;4.81;68.52
60852;BME280;48553;50.766;2.900;2023-02-26T08:43:54;101657.50;;;4.88;68.41
60852;BME280;48553;50.766;2.900;2023-02-26T08:46:55;101667.56;;;4.93;67.66
60852;BME280;48553;50.766;2.900;2023-02-26T08:49:55;101674.59;;;5.04;67.22
60852;BME280;48553;50.766;2.900;2023-02-26T08:52:56;101677.84;;;5.11;67.43
60852;BME280;48553;50.766;2.900;2023-02-26T08:55:56;101675.06;;;5.27;67.29
60852;BME280;48553;50.766;2.900;2023-02-26T08:58:57;101692.16;;;5.37;67.45
60852;BME280;48553;50.766;2.900;2023-02-26T09:01:57;101686.97;;;5.46;67.10
60852;BME280;48553;50.766;2.900;2023-02-26T09:04:58;101696.44;;;5.54;67.21
60852;BME280;48553;50.766;2.900;2023-02-26T09:07:58;101710.28;;;5.62;66.84
60852;BME280;48553;50.766;2.900;2023-02-26T09:11:02;101717.06;;;5.70;66.62
60852;BME280;48553;50.766;2.900;2023-02-26T09:14:03;101706.41;;;5.79;66.90
60852;BME280;48553;50.766;2.900;2023-02-26T09:17:04;101729.50;;;5.86;66.45
60852;BME280;48553;50.766;2.900;2023-02-26T09:20:05;101722.94;;;5.93;65.95
60852;BME280;48553;50.766;2.900;2023-02-26T09:23:06;101727.00;;;6.00;65.89
60852;BME280;48553;50.766;2.900;2023-02-26T09:26:06;101736.47;;;6.08;65.62
60852;BME280;48553;50.766;2.900;2023-02-26T09:29:08;101738.34;;;6.13;65.63
60852;BME280;48553;50.766;2.900;2023-02-26T09:32:08;101748.41;;;6.17;64.78
60852;BME280;48553;50.766;2.900;2023-02-26T09:35:09;101744.28;;;6.25;64.30
60852;BME280;48553;50.766;2.900;2023-02-26T09:38:10;101734.13;;;6.36;64.42
60852;BME280;48553;50.766;2.900;2023-02-26T09:41:46;101743.09;;;6.41;64.55
60852;BME280;48553;50.766;2.900;2023-02-26T09:44:49;101744.09;;;6.51;64.45
60852;BME280;48553;50.766;2.900;2023-02-26T09:47:53;101763.94;;;6.56;64.37
60852;BME280;48553;50.766;2.900;2023-02-26T09:50:56;101752.22;;;6.61;63.80
60852;BME280;48553;50.766;2.900;2023-02-26T09:53:57;101757.56;;;6.71;63.45
60852;BME280;48553;50.766;2.900;2023-02-26T09:57:00;101757.78;;;6.80;64.02
60852;BME280;48553;50.766;2.900;2023-02-26T10:00:39;101760.44;;;6.85;63.13
60852;BME280;48553;50.766;2.900;2023-02-26T10:13:44;101774.56;;;7.21;62.94
60852;BME280;48553;50.766;2.900;2023-02-26T10:16:49;101769.03;;;7.31;62.55
60852;BME280;48553;50.766;2.900;2023-02-26T10:19:55;101793.16;;;7.43;62.09
60852;BME280;48553;50.766;2.900;2023-02-26T10:23:18;101792.03;;;7.49;61.83
60852;BME280;48553;50.766;2.900;2023-02-26T10:26:34;101792.25;;;7.53;60.46
60852;BME280;48553;50.766;2.900;2023-02-26T10:42:37;101803.81;;;7.93;58.99
60852;BME280;48553;50.766;2.900;2023-02-26T10:52:31;101797.78;;;8.15;57.33
60852;BME280;48553;50.766;2.900;2023-02-26T10:55:34;101799.84;;;8.23;58.05
60852;BME280;48553;50.766;2.900;2023-02-26T10:58:37;101800.75;;;8.37;58.02
60852;BME280;48553;50.766;2.900;2023-02-26T11:01:39;101802.09;;;8.40;57.55
60852;BME280;48553;50.766;2.900;2023-02-26T11:04:39;101803.66;;;8.46;57.00
60852;BME280;48553;50.766;2.900;2023-02-26T11:07:40;101802.78;;;8.51;57.20
60852;BME280;48553;50.766;2.900;2023-02-26T11:11:02;101812.25;;;8.59;57.94
60852;BME280;48553;50.766;2.900;2023-02-26T11:14:03;101814.09;;;8.63;57.26
60852;BME280;48553;50.766;2.900;2023-02-26T11:17:10;101810.22;;;8.64;56.80
60852;BME280;48553;50.766;2.900;2023-02-26T11:20:44;101818.78;;;8.76;57.28
60852;BME280;48553;50.766;2.900;2023-02-26T11:23:44;101821.47;;;8.82;56.01
60852;BME280;48553;50.766;2.900;2023-02-26T11:26:47;101816.72;;;8.87;56.29
60852;BME280;48553;50.766;2.900;2023-02-26T11:29:55;101816.13;;;8.90;56.09
60852;BME280;48553;50.766;2.900;2023-02-26T11:33:03;101824.09;;;8.87;55.31
60852;BME280;48553;50.766;2.900;2023-02-26T11:36:13;101826.16;;;8.95;55.58
60852;BME280;48553;50.766;2.900;2023-02-26T11:39:21;101824.75;;;8.97;55.29
60852;BME280;48553;50.766;2.900;2023-02-26T11:42:22;101817.06;;;8.99;55.19
60852;BME280;48553;50.766;2.900;2023-02-26T11:45:24;101816.09;;;9.09;55.50
60852;BME280;48553;50.766;2.900;2023-02-26T11:48:28;101814.44;;;9.08;55.59
60852;BME280;48553;50.766;2.900;2023-02-26T11:51:32;101825.59;;;9.12;56.16
60852;BME280;48553;50.766;2.900;2023-02-26T11:54:34;101818.16;;;9.17;55.17
60852;BME280;48553;50.766;2.900;2023-02-26T11:57:41;101814.56;;;9.17;55.77
60852;BME280;48553;50.766;2.900;2023-02-26T12:00:41;101825.03;;;9.29;56.23
60852;BME280;48553;50.766;2.900;2023-02-26T12:03:46;101823.94;;;9.30;56.80
60852;BME280;48553;50.766;2.900;2023-02-26T12:06:51;101823.44;;;9.28;56.15
60852;BME280;48553;50.766;2.900;2023-02-26T12:09:52;101817.28;;;9.36;56.51
60852;BME280;48553;50.766;2.900;2023-02-26T12:13:10;101817.56;;;9.34;54.42
60852;BME280;48553;50.766;2.900;2023-02-26T12:16:27;101818.97;;;9.32;54.54
60852;BME280;48553;50.766;2.900;2023-02-26T12:22:48;101807.47;;;9.62;57.24
60852;BME280;48553;50.766;2.900;2023-02-26T12:29:24;101804.03;;;9.57;57.41
60852;BME280;48553;50.766;2.900;2023-02-26T12:32:42;101806.88;;;9.66;57.12
60852;BME280;48553;50.766;2.900;2023-02-26T12:39:26;101811.22;;;9.80;57.34
60852;BME280;48553;50.766;2.900;2023-02-26T12:43:09;101819.94;;;9.82;56.15
60852;BME280;48553;50.766;2.900;2023-02-26T12:46:39;101816.28;;;9.73;56.26
60852;BME280;48553;50.766;2.900;2023-02-26T13:06:54;101809.72;;;9.88;56.79
60852;BME280;48553;50.766;2.900;2023-02-26T13:12:41;101812.97;;;9.90;55.83
60852;BME280;48553;50.766;2.900;2023-02-26T13:22:02;101813.25;;;9.89;56.60
60852;BME280;48553;50.766;2.900;2023-02-26T13:28:23;101814.56;;;9.91;56.83
60852;BME280;48553;50.766;2.900;2023-02-26T13:31:32;101816.00;;;9.89;56.32
60852;BME280;48553;50.766;2.900;2023-02-26T13:34:52;101811.44;;;9.84;54.99
60852;BME280;48553;50.766;2.900;2023-02-26T13:37:56;101809.50;;;9.85;55.58
60852;BME280;48553;50.766;2.900;2023-02-26T13:47:57;101806.34;;;9.77;55.41
60852;BME280;48553;50.766;2.900;2023-02-26T13:57:25;101807.97;;;9.65;55.35
60852;BME280;48553;50.766;2.900;2023-02-26T14:00:33;101809.38;;;9.62;55.78
60852;BME280;48553;50.766;2.900;2023-02-26T14:04:48;101801.19;;;9.62;56.71
60852;BME280;48553;50.766;2.900;2023-02-26T14:07:15;101798.44;;;9.62;56.92
60852;BME280;48553;50.766;2.900;2023-02-26T14:13:37;101814.75;;;9.53;56.26
60852;BME280;48553;50.766;2.900;2023-02-26T14:16:40;101808.75;;;9.51;56.85
60852;BME280;48553;50.766;2.900;2023-02-26T14:23:11;101830.16;;;9.49;55.54
60852;BME280;48553;50.766;2.900;2023-02-26T14:26:16;101830.84;;;9.41;57.00
60852;BME280;48553;50.766;2.900;2023-02-26T14:29:24;101828.13;;;9.41;56.73
60852;BME280;48553;50.766;2.900;2023-02-26T14:32:29;101836.44;;;9.36;57.42
60852;BME280;48553;50.766;2.900;2023-02-26T14:35:39;101839.22;;;9.31;56.58
60852;BME280;48553;50.766;2.900;2023-02-26T14:38:41;101839.03;;;9.27;56.76
60852;BME280;48553;50.766;2.900;2023-02-26T14:41:43;101849.22;;;9.22;56.44
60852;BME280;48553;50.766;2.900;2023-02-26T14:44:48;101840.50;;;9.19;56.68
60852;BME280;48553;50.766;2.900;2023-02-26T14:47:49;101854.88;;;9.11;55.67
60852;BME280;48553;50.766;2.900;2023-02-26T15:23:58;101845.25;;;8.62;57.42
60852;BME280;48553;50.766;2.900;2023-02-26T15:27:01;101845.41;;;8.52;57.24
60852;BME280;48553;50.766;2.900;2023-02-26T15:30:03;101834.59;;;8.42;57.25
60852;BME280;48553;50.766;2.900;2023-02-26T15:33:06;101838.53;;;8.30;57.13
60852;BME280;48553;50.766;2.900;2023-02-26T15:36:14;101835.97;;;8.20;57.60
60852;BME280;48553;50.766;2.900;2023-02-26T15:39:17;101836.31;;;8.13;57.93
60852;BME280;48553;50.766;2.900;2023-02-26T15:42:20;101835.53;;;8.08;58.74
60852;BME280;48553;50.766;2.900;2023-02-26T15:45:46;101831.03;;;7.98;58.25
60852;BME280;48553;50.766;2.900;2023-02-26T15:48:47;101828.72;;;7.86;58.39
60852;BME280;48553;50.766;2.900;2023-02-26T15:51:49;101843.78;;;7.79;57.89
60852;BME280;48553;50.766;2.900;2023-02-26T15:54:59;101843.13;;;7.68;57.89
60852;BME280;48553;50.766;2.900;2023-02-26T15:58:03;101833.88;;;7.64;58.14
60852;BME280;48553;50.766;2.900;2023-02-26T16:01:05;101833.69;;;7.55;57.99
60852;BME280;48553;50.766;2.900;2023-02-26T16:04:12;101849.84;;;7.46;56.90
60852;BME280;48553;50.766;2.900;2023-02-26T16:07:13;101847.19;;;7.41;57.44
60852;BME280;48553;50.766;2.900;2023-02-26T16:13:31;101839.91;;;7.31;56.82
60852;BME280;48553;50.766;2.900;2023-02-26T16:16:44;101840.81;;;7.22;57.17
60852;BME280;48553;50.766;2.900;2023-02-26T16:19:47;101851.22;;;7.15;56.95
60852;BME280;48553;50.766;2.900;2023-02-26T16:22:54;101842.00;;;7.10;56.86
60852;BME280;48553;50.766;2.900;2023-02-26T16:26:00;101846.41;;;7.06;56.92
60852;BME280;48553;50.766;2.900;2023-02-26T16:29:05;101845.09;;;6.99;57.03
60852;BME280;48553;50.766;2.900;2023-02-26T16:32:08;101840.97;;;7.01;57.61
60852;BME280;48553;50.766;2.900;2023-02-26T16:35:15;101853.59;;;6.92;57.83
60852;BME280;48553;50.766;2.900;2023-02-26T16:38:20;101850.91;;;6.87;58.12
60852;BME280;48553;50.766;2.900;2023-02-26T16:41:25;101852.28;;;6.84;58.16
60852;BME280;48553;50.766;2.900;2023-02-26T16:47:30;101858.03;;;6.78;58.28
60852;BME280;48553;50.766;2.900;2023-02-26T16:50:33;101863.00;;;6.71;58.42
60852;BME280;48553;50.766;2.900;2023-02-26T16:53:44;101869.00;;;6.67;59.31
60852;BME280;48553;50.766;2.900;2023-02-26T16:56:52;101869.56;;;6.64;58.73
60852;BME280;48553;50.766;2.900;2023-02-26T16:59:57;101877.22;;;6.62;59.00
60852;BME280;48553;50.766;2.900;2023-02-26T17:03:12;101877.50;;;6.56;59.61
60852;BME280;48553;50.766;2.900;2023-02-26T17:06:15;101876.97;;;6.54;59.87
60852;BME280;48553;50.766;2.900;2023-02-26T17:12:48;101889.53;;;6.44;59.66
60852;BME280;48553;50.766;2.900;2023-02-26T17:15:49;101898.00;;;6.43;60.21
60852;BME280;48553;50.766;2.900;2023-02-26T17:18:50;101902.94;;;6.41;60.21
60852;BME280;48553;50.766;2.900;2023-02-26T17:21:55;101904.03;;;6.35;60.30
60852;BME280;48553;50.766;2.900;2023-02-26T17:24:57;101910.59;;;6.34;59.87
60852;BME280;48553;50.766;2.900;2023-02-26T17:27:57;101914.38;;;6.33;60.10
60852;BME280;48553;50.766;2.900;2023-02-26T17:30:58;101910.56;;;6.28;60.06
60852;BME280;48553;50.766;2.900;2023-02-26T17:33:58;101911.16;;;6.20;60.24
60852;BME280;48553;50.766;2.900;2023-02-26T17:36:59;101911.16;;;6.20;60.40
60852;BME280;48553;50.766;2.900;2023-02-26T17:43:18;101915.25;;;6.13;60.06
60852;BME280;48553;50.766;2.900;2023-02-26T17:46:18;101922.88;;;6.11;60.69
60852;BME280;48553;50.766;2.900;2023-02-26T17:49:18;101926.44;;;6.06;60.75
60852;BME280;48553;50.766;2.900;2023-02-26T17:52:19;101925.09;;;6.03;60.75
60852;BME280;48553;50.766;2.900;2023-02-26T17:55:19;101918.03;;;5.97;60.56
60852;BME280;48553;50.766;2.900;2023-02-26T17:58:27;101929.19;;;5.96;60.87
60852;BME280;48553;50.766;2.900;2023-02-26T18:01:28;101927.25;;;5.91;61.12
60852;BME280;48553;50.766;2.900;2023-02-26T18:04:29;101931.91;;;5.91;61.68
60852;BME280;48553;50.766;2.900;2023-02-26T18:07:29;101935.72;;;5.84;61.87
60852;BME280;48553;50.766;2.900;2023-02-26T18:10:30;101934.63;;;5.80;61.75
60852;BME280;48553;50.766;2.900;2023-02-26T18:13:31;101941.97;;;5.80;61.97
60852;BME280;48553;50.766;2.900;2023-02-26T18:16:35;101933.28;;;5.73;61.89
60852;BME280;48553;50.766;2.900;2023-02-26T18:19:36;101944.97;;;5.68;61.79
60852;BME280;48553;50.766;2.900;2023-02-26T18:22:37;101935.19;;;5.67;62.24
60852;BME280;48553;50.766;2.900;2023-02-26T18:25:38;101940.63;;;5.62;62.21
60852;BME280;48553;50.766;2.900;2023-02-26T18:28:39;101946.88;;;5.62;62.33
60852;BME280;48553;50.766;2.900;2023-02-26T18:31:40;101946.06;;;5.57;62.07
60852;BME280;48553;50.766;2.900;2023-02-26T18:34:41;101953.69;;;5.55;62.34
60852;BME280;48553;50.766;2.900;2023-02-26T18:37:43;101957.22;;;5.50;62.50
60852;BME280;48553;50.766;2.900;2023-02-26T18:40:45;101956.94;;;5.52;62.63
60852;BME280;48553;50.766;2.900;2023-02-26T18:43:45;101961.84;;;5.50;62.76
60852;BME280;48553;50.766;2.900;2023-02-26T18:46:46;101965.63;;;5.43;62.79
60852;BME280;48553;50.766;2.900;2023-02-26T18:49:48;101961.81;;;5.44;63.25
60852;BME280;48553;50.766;2.900;2023-02-26T18:52:49;101964.81;;;5.38;63.09
60852;BME280;48553;50.766;2.900;2023-02-26T18:55:50;101964.81;;;5.33;63.46
60852;BME280;48553;50.766;2.900;2023-02-26T18:58:51;101967.78;;;5.31;63.51
60852;BME280;48553;50.766;2.900;2023-02-26T19:01:52;101974.88;;;5.32;63.83
60852;BME280;48553;50.766;2.900;2023-02-26T19:04:52;101970.78;;;5.25;63.53